Time;durP1;ratioP1;P1;durP2;ratioP2;P2;SDS_P1;SDS_P2;PMS_P1;PMS_P2;Temp;Humidity;BMP_temperature;BMP_pressure;BME280_temperature;BME280_humidity;BME280_pressure;Samples;Min_cycle;Max_cycle;Signal;HPM_P1;HPM_P2
2022/05/28 00:02:09;;;;;;;5.50;1.40;;;20.10;55.80;;;;;;4465174;32;20136;-61
2022/05/28 00:04:34;;;;;;;5.57;1.48;;;20.10;55.80;;;;;;4465878;32;20137;-61
2022/05/28 00:07:04;;;;;;;4.10;1.17;;;20.10;55.80;;;;;;4465618;32;20263;-61
2022/05/28 00:09:29;;;;;;;5.53;1.58;;;20.10;55.80;;;;;;4465561;32;20117;-61
2022/05/28 00:11:55;;;;;;;4.85;1.30;;;20.10;55.80;;;;;;4465101;32;20242;-61
2022/05/28 00:14:22;;;;;;;5.70;1.23;;;20.10;55.80;;;;;;4464021;32;20140;-61
2022/05/28 00:16:48;;;;;;;4.30;1.52;;;20.10;55.80;;;;;;4466246;32;20137;-61
2022/05/28 00:19:13;;;;;;;4.45;1.40;;;20.10;55.80;;;;;;4464844;32;20263;-61
2022/05/28 00:21:39;;;;;;;4.20;1.27;;;20.10;55.90;;;;;;4465613;32;20128;-61
2022/05/28 00:24:05;;;;;;;4.80;1.27;;;20.10;55.90;;;;;;4465226;32;20172;-61
2022/05/28 00:26:31;;;;;;;4.85;1.00;;;20.10;56.80;;;;;;4465275;32;20259;-61
2022/05/28 00:28:57;;;;;;;4.63;1.23;;;20.00;55.80;;;;;;4465660;32;20152;-61
2022/05/28 00:31:23;;;;;;;4.40;1.50;;;20.00;55.80;;;;;;4463217;32;20129;-61
2022/05/28 00:33:49;;;;;;;5.22;1.55;;;20.00;55.80;;;;;;4465960;32;20125;-61
2022/05/28 00:36:16;;;;;;;5.35;1.30;;;20.00;55.70;;;;;;4463518;32;20129;-61
2022/05/28 00:38:43;;;;;;;3.67;1.15;;;20.00;55.80;;;;;;4465594;32;20200;-61
2022/05/28 00:41:10;;;;;;;3.63;1.08;;;20.00;55.80;;;;;;4465116;32;20147;-61
2022/05/28 00:43:39;;;;;;;3.97;1.13;;;20.00;55.80;;;;;;4464860;32;20325;-61
2022/05/28 00:46:12;;;;;;;4.78;1.27;;;20.00;55.80;;;;;;4465540;32;20137;-61
2022/05/28 00:48:44;;;;;;;7.45;1.10;;;20.00;55.80;;;;;;4464644;32;20210;-61
2022/05/28 00:51:20;;;;;;;6.18;1.65;;;20.00;56.70;;;;;;4464712;32;20129;-61
2022/05/28 00:53:46;;;;;;;3.25;1.38;;;20.00;55.80;;;;;;4464582;32;20140;-61
2022/05/28 00:56:12;;;;;;;4.22;1.10;;;20.00;55.80;;;;;;4465737;32;20133;-61
2022/05/28 00:58:39;;;;;;;5.65;1.25;;;20.00;55.80;;;;;;4467805;32;20179;-61
2022/05/28 01:01:08;;;;;;;6.07;1.52;;;20.00;55.80;;;;;;4479907;31;20140;-61
2022/05/28 01:03:58;;;;;;;3.85;1.10;;;20.00;55.80;;;;;;4470653;32;20137;-61
2022/05/28 01:06:34;;;;;;;4.85;1.20;;;19.90;55.70;;;;;;4477382;32;20199;-61
2022/05/28 01:09:08;;;;;;;4.63;1.05;;;19.90;55.70;;;;;;4480770;32;20133;-62
2022/05/28 01:11:54;;;;;;;4.78;1.20;;;19.90;55.80;;;;;;4477447;32;20188;-61
2022/05/28 01:14:49;;;;;;;5.25;1.20;;;19.90;55.70;;;;;;4485380;32;20263;-61
2022/05/28 01:17:28;;;;;;;5.72;1.05;;;19.90;55.70;;;;;;4480762;32;20135;-61
2022/05/28 01:20:06;;;;;;;3.35;1.02;;;19.90;55.70;;;;;;4480301;32;20277;-61
2022/05/28 01:22:48;;;;;;;3.10;1.10;;;19.90;55.70;;;;;;4479950;32;20187;-61
2022/05/28 01:25:21;;;;;;;4.40;1.02;;;19.90;55.80;;;;;;4480697;32;20610;-61
2022/05/28 01:27:51;;;;;;;3.00;1.17;;;19.90;55.70;;;;;;4480129;32;20191;-61
2022/05/28 01:30:18;;;;;;;3.90;1.10;;;19.90;56.70;;;;;;4469415;32;20121;-62
2022/05/28 01:32:49;;;;;;;3.13;1.02;;;19.90;55.80;;;;;;4480374;32;20140;-61
2022/05/28 01:35:17;;;;;;;5.30;1.38;;;19.90;55.80;;;;;;4479982;32;20129;-61
2022/05/28 01:37:45;;;;;;;5.13;1.35;;;19.90;55.70;;;;;;4480880;32;20470;-61
2022/05/28 01:40:12;;;;;;;3.35;1.00;;;19.90;55.80;;;;;;4479469;32;20182;-61
2022/05/28 01:42:43;;;;;;;4.63;1.25;;;19.90;55.80;;;;;;4479573;32;20501;-61
2022/05/28 01:45:21;;;;;;;5.30;1.40;;;19.90;55.80;;;;;;4479019;32;20128;-61
2022/05/28 01:47:50;;;;;;;6.20;1.40;;;19.80;55.80;;;;;;4480146;32;20132;-61
2022/05/28 01:50:20;;;;;;;6.95;1.00;;;19.80;55.70;;;;;;4480410;32;20148;-61
2022/05/28 01:52:46;;;;;;;3.95;0.98;;;19.80;55.70;;;;;;4479454;32;20553;-61
2022/05/28 01:55:16;;;;;;;3.78;0.98;;;19.80;55.80;;;;;;4480615;32;20191;-61
2022/05/28 01:57:43;;;;;;;4.45;1.15;;;19.80;55.80;;;;;;4479439;32;20198;-61
2022/05/28 02:00:09;;;;;;;5.15;0.90;;;19.80;55.80;;;;;;4480460;32;20140;-61
2022/05/28 02:02:37;;;;;;;2.47;1.10;;;19.80;55.80;;;;;;4478640;32;20128;-61
2022/05/28 02:05:05;;;;;;;4.28;0.95;;;19.80;55.80;;;;;;4470672;32;20548;-61
2022/05/28 02:07:32;;;;;;;4.15;0.90;;;19.80;55.80;;;;;;4480500;32;20136;-61
2022/05/28 02:10:12;;;;;;;3.78;1.30;;;19.80;55.80;;;;;;4479500;32;20302;-61
2022/05/28 02:13:27;;;;;;;4.05;1.02;;;19.80;55.80;;;;;;4480692;32;20140;-61
2022/05/28 02:15:59;;;;;;;3.75;0.98;;;19.80;55.80;;;;;;4476886;32;20121;-61
2022/05/28 02:18:42;;;;;;;4.00;1.10;;;19.80;55.90;;;;;;4481275;32;20129;-61
2022/05/28 02:21:15;;;;;;;3.35;1.10;;;19.80;55.80;;;;;;4483489;32;20250;-61
2022/05/28 02:23:48;;;;;;;5.50;1.10;;;19.80;55.80;;;;;;4482268;32;20196;-61
2022/05/28 02:26:32;;;;;;;2.67;0.90;;;19.80;55.80;;;;;;4482818;32;20560;-61
2022/05/28 02:29:00;;;;;;;3.85;1.05;;;19.80;55.80;;;;;;4482930;32;20190;-61
2022/05/28 02:31:30;;;;;;;4.18;1.08;;;19.80;55.90;;;;;;4478163;31;20133;-61
2022/05/28 02:33:56;;;;;;;5.20;1.25;;;19.70;55.90;;;;;;4467342;32;20200;-61
2022/05/28 02:36:23;;;;;;;3.25;1.00;;;19.80;55.90;;;;;;4466061;32;20218;-61
2022/05/28 02:38:49;;;;;;;2.38;0.80;;;19.70;55.80;;;;;;4466618;32;20149;-62
2022/05/28 02:41:15;;;;;;;3.63;1.00;;;19.70;55.90;;;;;;4466136;32;20117;-62
2022/05/28 02:43:41;;;;;;;3.72;1.10;;;19.70;55.90;;;;;;4478172;31;20133;-62
2022/05/28 02:46:08;;;;;;;4.10;1.10;;;19.70;55.90;;;;;;4466786;32;20278;-62
2022/05/28 02:48:34;;;;;;;3.08;0.90;;;19.70;55.90;;;;;;4477591;31;20184;-62
2022/05/28 02:51:05;;;;;;;6.97;1.35;;;19.70;55.90;;;;;;4466924;32;20133;-62
2022/05/28 02:53:32;;;;;;;3.42;0.93;;;19.70;55.90;;;;;;4467832;32;20199;-62
2022/05/28 02:55:59;;;;;;;2.95;0.95;;;19.70;55.90;;;;;;4467234;32;20721;-62
2022/05/28 02:58:25;;;;;;;4.05;1.23;;;19.70;55.90;;;;;;4475580;31;20117;-62
2022/05/28 03:00:52;;;;;;;4.70;1.40;;;19.70;55.90;;;;;;4478427;31;20653;-62
2022/05/28 03:03:19;;;;;;;3.92;1.17;;;19.70;55.90;;;;;;4481288;31;20140;-62
2022/05/28 03:05:50;;;;;;;5.07;1.30;;;19.70;55.90;;;;;;4493164;31;20612;-62
2022/05/28 03:08:16;;;;;;;3.95;1.05;;;19.70;55.90;;;;;;4479860;31;20125;-62
2022/05/28 03:10:43;;;;;;;4.68;1.20;;;19.70;55.90;;;;;;4480108;31;20188;-62
2022/05/28 03:13:09;;;;;;;2.80;1.10;;;19.70;55.90;;;;;;4467306;31;20273;-62
2022/05/28 03:15:36;;;;;;;4.57;1.15;;;19.70;56.00;;;;;;4466224;31;20600;-62
2022/05/28 03:18:02;;;;;;;5.07;1.08;;;19.70;55.90;;;;;;4477584;31;20148;-62
2022/05/28 03:20:30;;;;;;;3.63;0.95;;;19.70;55.90;;;;;;4465852;32;20145;-62
2022/05/28 03:22:56;;;;;;;3.10;1.10;;;19.70;55.90;;;;;;4466528;32;20141;-62
2022/05/28 03:25:22;;;;;;;3.67;1.00;;;19.60;55.90;;;;;;4465690;32;20125;-62
2022/05/28 03:27:48;;;;;;;2.75;0.93;;;19.70;56.00;;;;;;4463237;32;20160;-62
2022/05/28 03:30:14;;;;;;;2.90;1.05;;;19.60;55.90;;;;;;4465170;32;20129;-62
2022/05/28 03:32:40;;;;;;;4.28;0.80;;;19.60;55.90;;;;;;4465614;32;20117;-62
2022/05/28 03:35:07;;;;;;;4.65;1.13;;;19.60;55.90;;;;;;4465721;32;20211;-62
2022/05/28 03:37:33;;;;;;;3.83;1.00;;;19.60;55.90;;;;;;4466494;32;20133;-62
2022/05/28 03:39:59;;;;;;;4.70;1.00;;;19.60;55.90;;;;;;4475095;32;20149;-62
2022/05/28 03:42:25;;;;;;;2.30;0.82;;;19.60;56.90;;;;;;4472192;32;20182;-62
2022/05/28 03:44:50;;;;;;;3.72;0.95;;;19.60;55.90;;;;;;4469251;32;20140;-62
2022/05/28 03:47:16;;;;;;;2.15;0.73;;;19.60;55.90;;;;;;4466046;32;20117;-62
2022/05/28 03:49:43;;;;;;;3.08;1.05;;;19.60;56.00;;;;;;4465688;32;20584;-62
2022/05/28 03:52:10;;;;;;;4.63;1.15;;;19.60;56.00;;;;;;4465389;32;20127;-62
2022/05/28 03:54:43;;;;;;;3.15;0.90;;;19.60;55.90;;;;;;4465752;32;20133;-62
2022/05/28 03:57:14;;;;;;;4.40;1.00;;;19.60;56.00;;;;;;4464811;32;20148;-62
2022/05/28 03:59:41;;;;;;;3.47;0.90;;;19.60;56.00;;;;;;4468110;32;20129;-62
2022/05/28 04:02:07;;;;;;;4.68;0.82;;;19.60;56.00;;;;;;4464825;32;20132;-62
2022/05/28 04:04:33;;;;;;;3.53;1.00;;;19.60;56.00;;;;;;4464141;32;20137;-62
2022/05/28 04:07:00;;;;;;;4.82;0.90;;;19.50;56.00;;;;;;4465025;32;20164;-62
2022/05/28 04:09:27;;;;;;;3.22;1.08;;;19.50;56.00;;;;;;4464806;32;20133;-62
2022/05/28 04:11:53;;;;;;;2.72;1.10;;;19.50;56.00;;;;;;4465881;32;20121;-62
2022/05/28 04:14:19;;;;;;;4.53;0.95;;;19.50;56.00;;;;;;4464541;32;20482;-62
2022/05/28 04:16:47;;;;;;;4.03;0.98;;;19.50;56.00;;;;;;4466060;32;20121;-61
2022/05/28 04:19:13;;;;;;;2.33;0.77;;;19.50;56.00;;;;;;4464880;32;20501;-62
2022/05/28 04:21:40;;;;;;;3.38;1.05;;;19.50;56.00;;;;;;4465139;32;20151;-62
2022/05/28 04:24:07;;;;;;;2.78;0.88;;;19.50;56.10;;;;;;4463398;32;20133;-63
2022/05/28 04:26:33;;;;;;;6.30;0.90;;;19.50;56.00;;;;;;4474556;31;20125;-63
2022/05/28 04:28:59;;;;;;;2.72;1.00;;;19.50;56.00;;;;;;4480943;31;20172;-63
2022/05/28 04:31:25;;;;;;;3.03;1.02;;;19.50;56.00;;;;;;4477242;31;20121;-63
2022/05/28 04:33:51;;;;;;;4.28;0.88;;;19.50;56.00;;;;;;4474701;31;20148;-62
2022/05/28 04:36:17;;;;;;;2.83;0.90;;;19.50;56.00;;;;;;4464479;32;20113;-62
2022/05/28 04:38:42;;;;;;;3.88;0.75;;;19.50;56.10;;;;;;4464574;32;20133;-62
2022/05/28 04:41:09;;;;;;;2.13;1.02;;;19.50;56.10;;;;;;4465069;32;20275;-62
2022/05/28 04:43:34;;;;;;;3.42;0.95;;;19.50;56.10;;;;;;4464617;32;20169;-62
2022/05/28 04:46:00;;;;;;;3.42;0.80;;;19.50;56.10;;;;;;4465355;32;20181;-62
2022/05/28 04:48:27;;;;;;;5.07;1.20;;;19.50;56.10;;;;;;4464433;32;20137;-62
2022/05/28 04:50:52;;;;;;;3.65;0.98;;;19.50;56.10;;;;;;4465654;32;20133;-63
2022/05/28 04:53:18;;;;;;;3.75;1.02;;;19.50;56.00;;;;;;4464461;32;20117;-63
2022/05/28 04:55:47;;;;;;;2.72;0.85;;;19.50;56.10;;;;;;4477002;32;20137;-62
2022/05/28 04:58:13;;;;;;;2.80;0.85;;;19.50;56.10;;;;;;4464832;32;20133;-62
2022/05/28 05:00:41;;;;;;;3.67;0.95;;;19.50;56.10;;;;;;4464603;32;20140;-62
2022/05/28 05:03:07;;;;;;;4.00;1.00;;;19.50;56.10;;;;;;4463973;32;20147;-62
2022/05/28 05:05:33;;;;;;;3.47;0.85;;;19.50;56.10;;;;;;4473637;32;20144;-62
2022/05/28 05:07:59;;;;;;;4.30;0.90;;;19.50;56.10;;;;;;4480003;32;20156;-63
2022/05/28 05:10:25;;;;;;;3.08;1.00;;;19.50;56.10;;;;;;4479840;32;20120;-62
2022/05/28 05:12:51;;;;;;;3.50;1.25;;;19.50;56.10;;;;;;4480781;32;20133;-62
2022/05/28 05:15:17;;;;;;;2.88;0.85;;;19.50;56.10;;;;;;4479199;32;20117;-62
2022/05/28 05:17:43;;;;;;;3.70;0.90;;;19.50;56.10;;;;;;4480398;32;20206;-62
2022/05/28 05:20:11;;;;;;;4.53;1.17;;;19.50;56.10;;;;;;4480587;32;20132;-62
2022/05/28 05:22:38;;;;;;;3.90;1.10;;;19.50;56.10;;;;;;4479899;32;20145;-62
2022/05/28 05:25:05;;;;;;;3.15;1.00;;;19.50;56.00;;;;;;4480798;32;20245;-62
2022/05/28 05:27:31;;;;;;;3.20;1.02;;;19.50;56.10;;;;;;4479669;32;20176;-62
2022/05/28 05:29:58;;;;;;;3.47;1.17;;;19.50;56.00;;;;;;4466716;32;20294;-62
2022/05/28 05:32:24;;;;;;;3.25;0.90;;;19.50;56.10;;;;;;4480252;32;20136;-62
2022/05/28 05:34:50;;;;;;;3.38;1.10;;;19.50;56.10;;;;;;4480247;32;20125;-62
2022/05/28 05:37:16;;;;;;;3.65;1.00;;;19.50;56.10;;;;;;4480535;32;20145;-62
2022/05/28 05:39:42;;;;;;;3.03;1.00;;;19.50;56.10;;;;;;4478600;32;20141;-62
2022/05/28 05:42:08;;;;;;;4.63;1.20;;;19.50;56.10;;;;;;4480824;32;20210;-62
2022/05/28 05:44:34;;;;;;;2.28;0.70;;;19.50;56.10;;;;;;4479372;32;20137;-62
2022/05/28 05:47:00;;;;;;;3.33;0.90;;;19.50;56.10;;;;;;4480578;32;20125;-62
2022/05/28 05:49:26;;;;;;;4.32;0.85;;;19.50;56.20;;;;;;4479979;32;20147;-62
2022/05/28 05:51:52;;;;;;;3.17;1.00;;;19.50;56.20;;;;;;4482859;32;20125;-62
2022/05/28 05:54:19;;;;;;;4.10;1.00;;;19.50;56.20;;;;;;4487357;31;20139;-62
2022/05/28 05:56:45;;;;;;;2.63;0.88;;;19.50;56.20;;;;;;4483002;31;20286;-63
2022/05/28 05:59:12;;;;;;;3.50;0.85;;;19.50;56.20;;;;;;4482430;32;20125;-62
2022/05/28 06:01:38;;;;;;;3.78;1.23;;;19.50;56.20;;;;;;4482335;32;20150;-63
2022/05/28 06:04:04;;;;;;;5.90;1.10;;;19.50;56.10;;;;;;4473113;32;20137;-61
2022/05/28 06:06:30;;;;;;;3.75;1.15;;;19.60;56.10;;;;;;4482267;32;20267;-62
2022/05/28 06:08:56;;;;;;;5.35;1.08;;;19.60;56.00;;;;;;4482059;32;20530;-62
2022/05/28 06:11:22;;;;;;;5.15;1.15;;;19.60;56.00;;;;;;4482850;32;20421;-62
2022/05/28 06:13:48;;;;;;;5.38;1.10;;;19.60;55.90;;;;;;4481220;32;20129;-62
2022/05/28 06:16:14;;;;;;;2.58;1.08;;;19.60;55.90;;;;;;4483415;32;20302;-62
2022/05/28 06:18:40;;;;;;;2.58;0.90;;;19.60;55.90;;;;;;4482064;31;20214;-62
2022/05/28 06:21:06;;;;;;;5.57;1.38;;;19.60;56.00;;;;;;4483392;32;20133;-62
2022/05/28 06:23:32;;;;;;;4.25;0.98;;;19.60;55.90;;;;;;4482139;32;20141;-62
2022/05/28 06:25:58;;;;;;;6.82;1.52;;;19.60;55.90;;;;;;4482675;32;20117;-62
2022/05/28 06:28:24;;;;;;;5.72;1.23;;;19.70;55.90;;;;;;4482516;32;20121;-62
2022/05/28 06:30:51;;;;;;;7.03;1.13;;;19.70;55.90;;;;;;4481179;32;20127;-62
2022/05/28 06:33:18;;;;;;;3.53;1.20;;;19.70;55.80;;;;;;4482021;32;20132;-62
2022/05/28 06:35:44;;;;;;;6.53;1.50;;;19.70;55.80;;;;;;4481779;31;20577;-62
2022/05/28 06:38:10;;;;;;;5.43;1.40;;;19.70;55.70;;;;;;4483091;32;20139;-62
2022/05/28 06:40:36;;;;;;;5.82;1.13;;;19.70;55.70;;;;;;4482189;32;20558;-62
2022/05/28 06:43:02;;;;;;;5.07;1.63;;;19.70;55.80;;;;;;4481412;32;20121;-62
2022/05/28 06:45:29;;;;;;;6.07;1.40;;;19.70;55.70;;;;;;4482435;31;20262;-62
2022/05/28 06:47:54;;;;;;;6.47;1.90;;;19.70;55.70;;;;;;4482366;32;20125;-62
2022/05/28 06:53:09;;;;;;;6.38;1.50;;;19.80;55.40;;;;;;4483459;31;20181;-61
2022/05/28 06:55:36;;;;;;;6.70;1.63;;;19.80;55.30;;;;;;4468356;31;20191;-63
2022/05/28 06:58:04;;;;;;;6.70;1.90;;;19.80;55.30;;;;;;4477839;31;20173;-63
2022/05/28 07:00:30;;;;;;;7.45;1.23;;;19.80;55.30;;;;;;4466262;32;20562;-63
2022/05/28 07:02:56;;;;;;;8.88;1.77;;;19.80;55.30;;;;;;4464726;32;20133;-62
2022/05/28 07:05:22;;;;;;;8.80;1.80;;;19.90;55.40;;;;;;4465544;32;20155;-62
2022/05/28 07:07:48;;;;;;;8.20;1.67;;;19.90;55.30;;;;;;4467063;32;20129;-62
2022/05/28 07:10:14;;;;;;;7.05;1.80;;;19.90;55.30;;;;;;4467280;32;20138;-62
2022/05/28 07:12:40;;;;;;;5.05;1.33;;;19.90;55.20;;;;;;4466715;32;20122;-62
2022/05/28 07:15:07;;;;;;;8.65;2.05;;;20.00;55.20;;;;;;4466129;32;20124;-62
2022/05/28 07:17:33;;;;;;;9.40;2.33;;;20.00;55.20;;;;;;4466037;32;20129;-61
2022/05/28 07:19:59;;;;;;;6.78;1.70;;;20.00;55.10;;;;;;4466271;32;20182;-62
2022/05/28 07:22:25;;;;;;;5.55;1.75;;;20.00;55.10;;;;;;4464647;32;20593;-61
2022/05/28 07:24:52;;;;;;;6.03;1.60;;;20.00;55.10;;;;;;4466528;32;20157;-63
2022/05/28 07:27:19;;;;;;;6.47;1.67;;;20.00;55.10;;;;;;4475120;32;20132;-61
2022/05/28 07:29:45;;;;;;;6.38;1.52;;;20.00;55.00;;;;;;4466635;32;20246;-62
2022/05/28 07:32:10;;;;;;;11.00;2.00;;;20.00;55.00;;;;;;4465772;32;20191;-62
2022/05/28 07:34:36;;;;;;;11.25;2.00;;;20.00;54.90;;;;;;4464510;32;20133;-62
2022/05/28 07:37:02;;;;;;;6.30;2.10;;;19.90;54.80;;;;;;4465938;32;20125;-62
2022/05/28 07:39:28;;;;;;;6.63;2.17;;;19.90;54.80;;;;;;4475741;32;20475;-62
2022/05/28 07:41:54;;;;;;;6.05;1.45;;;19.90;54.80;;;;;;4466239;32;20149;-61
2022/05/28 07:44:20;;;;;;;7.20;1.77;;;20.00;54.80;;;;;;4463826;32;20090;-61
2022/05/28 07:46:47;;;;;;;12.27;2.35;;;20.00;54.80;;;;;;4466315;32;20156;-62
2022/05/28 07:49:13;;;;;;;8.80;2.00;;;20.00;54.70;;;;;;4465468;32;20291;-62
2022/05/28 07:51:39;;;;;;;8.88;2.20;;;20.00;54.60;;;;;;4464619;32;20143;-62
2022/05/28 07:54:06;;;;;;;8.00;1.83;;;20.10;54.60;;;;;;4465442;32;20129;-62
2022/05/28 07:56:32;;;;;;;9.45;2.17;;;20.10;54.50;;;;;;4465294;32;20144;-62
2022/05/28 07:58:59;;;;;;;9.60;2.13;;;20.10;54.40;;;;;;4478066;31;20137;-62
2022/05/28 08:01:26;;;;;;;5.65;1.65;;;20.10;54.10;;;;;;4465035;32;20141;-62
2022/05/28 08:03:53;;;;;;;6.50;1.92;;;20.10;54.10;;;;;;4478210;32;20543;-61
2022/05/28 08:06:21;;;;;;;8.65;2.10;;;20.20;54.20;;;;;;4479421;32;20129;-62
2022/05/28 08:08:49;;;;;;;9.00;1.95;;;20.20;54.20;;;;;;4481380;32;20140;-62
2022/05/28 08:11:15;;;;;;;6.60;1.88;;;20.20;54.00;;;;;;4479986;32;20692;-62
2022/05/28 08:13:43;;;;;;;10.93;1.90;;;20.30;54.10;;;;;;4480288;31;20167;-62
2022/05/28 08:16:09;;;;;;;9.18;1.90;;;20.30;54.00;;;;;;4478549;31;20172;-62
2022/05/28 08:18:37;;;;;;;5.97;1.75;;;20.40;53.90;;;;;;4477462;32;20819;-62
2022/05/28 08:23:48;;;;;;;7.57;1.77;;;20.40;53.60;;;;;;4480340;32;20255;-62
2022/05/28 08:26:19;;;;;;;7.43;1.85;;;20.40;53.50;;;;;;4477702;31;20259;-63
2022/05/28 08:28:47;;;;;;;8.45;1.85;;;20.40;53.30;;;;;;4477651;32;20125;-63
2022/05/28 08:31:17;;;;;;;9.30;2.38;;;20.50;53.40;;;;;;4491454;31;20267;-63
2022/05/28 08:33:43;;;;;;;8.57;2.42;;;20.50;53.20;;;;;;4477242;32;20129;-63
2022/05/28 08:36:10;;;;;;;6.50;1.90;;;20.50;53.20;;;;;;4471012;32;20183;-62
2022/05/28 08:38:39;;;;;;;8.32;2.20;;;20.50;52.90;;;;;;4465075;32;20183;-62
2022/05/28 08:41:16;;;;;;;12.15;2.38;;;20.60;53.00;;;;;;4465123;32;20611;-62
2022/05/28 08:44:04;;;;;;;6.68;1.90;;;20.60;52.60;;;;;;4464412;32;20158;-62
2022/05/28 08:46:34;;;;;;;6.53;1.60;;;20.60;52.60;;;;;;4475293;32;20189;-62
2022/05/28 08:49:02;;;;;;;6.47;1.80;;;20.60;52.60;;;;;;4464416;32;20133;-63
2022/05/28 08:51:40;;;;;;;8.35;1.98;;;20.60;52.40;;;;;;4465263;32;20674;-62
2022/05/28 08:54:24;;;;;;;6.95;2.17;;;20.60;52.40;;;;;;4464622;32;20144;-62
2022/05/28 08:56:53;;;;;;;9.55;2.10;;;20.60;52.30;;;;;;4464027;32;20267;-61
2022/05/28 08:59:25;;;;;;;8.50;1.77;;;20.60;52.20;;;;;;4465466;32;20141;-63
2022/05/28 09:01:52;;;;;;;8.52;2.05;;;20.60;52.00;;;;;;4464251;32;20148;-62
2022/05/28 09:04:40;;;;;;;8.98;2.40;;;20.70;52.20;;;;;;4477012;32;20120;-62
2022/05/28 09:07:10;;;;;;;8.98;2.00;;;20.70;53.20;;;;;;4480684;32;20137;-62
2022/05/28 09:09:48;;;;;;;7.68;1.95;;;20.70;52.30;;;;;;4479866;32;20150;-62
2022/05/28 09:12:36;;;;;;;15.35;2.30;;;20.70;52.20;;;;;;4470449;32;20165;-63
2022/05/28 09:15:02;;;;;;;9.70;2.33;;;20.60;52.10;;;;;;4470676;32;20125;-63
2022/05/28 09:17:38;;;;;;;13.10;2.33;;;20.70;52.20;;;;;;4471212;32;20273;-62
2022/05/28 09:20:14;;;;;;;8.63;1.73;;;20.60;52.20;;;;;;4464810;32;20179;-62
2022/05/28 09:22:40;;;;;;;7.30;2.03;;;20.60;52.10;;;;;;4464149;32;20190;-62
2022/05/28 09:25:07;;;;;;;10.63;2.08;;;20.60;52.00;;;;;;4465650;32;20295;-62
2022/05/28 09:27:54;;;;;;;10.82;2.03;;;20.60;51.90;;;;;;4466158;32;20137;-62
2022/05/28 09:30:50;;;;;;;9.10;2.17;;;20.70;51.50;;;;;;4458684;32;20251;-62
2022/05/28 09:34:01;;;;;;;7.05;1.95;;;20.70;51.70;;;;;;4468233;32;20118;-62
2022/05/28 09:36:40;;;;;;;8.80;2.10;;;20.70;51.80;;;;;;4457715;32;20191;-62
2022/05/28 09:39:29;;;;;;;9.15;2.10;;;20.60;51.60;;;;;;4467542;32;20607;-62
2022/05/28 09:42:19;;;;;;;13.35;2.35;;;20.60;51.60;;;;;;4468236;32;20192;-62
2022/05/28 09:44:53;;;;;;;9.73;2.10;;;20.60;51.40;;;;;;4467237;32;20169;-62
2022/05/28 09:47:19;;;;;;;9.50;2.22;;;20.60;51.30;;;;;;4467503;32;20135;-62
2022/05/28 09:49:58;;;;;;;9.75;2.22;;;20.60;51.40;;;;;;4467574;32;20121;-62
2022/05/28 09:52:28;;;;;;;9.32;1.95;;;20.60;51.20;;;;;;4467000;32;20132;-62
2022/05/28 09:55:18;;;;;;;5.82;1.60;;;20.60;50.90;;;;;;4468075;32;20574;-62
2022/05/28 09:57:58;;;;;;;11.20;1.92;;;20.70;51.00;;;;;;4467140;32;20141;-62
2022/05/28 10:00:24;;;;;;;13.18;2.15;;;20.70;50.90;;;;;;4467306;32;20459;-62
2022/05/28 10:05:54;;;;;;;7.82;1.83;;;20.60;50.50;;;;;;4477026;32;20109;-62
2022/05/28 10:08:30;;;;;;;10.65;2.10;;;20.60;50.00;;;;;;4482441;32;20145;-62
2022/05/28 10:11:00;;;;;;;6.93;1.65;;;20.60;50.00;;;;;;4482930;32;20141;-62
2022/05/28 10:13:28;;;;;;;8.90;1.63;;;20.60;50.10;;;;;;4482987;32;20161;-62
2022/05/28 10:16:00;;;;;;;8.13;1.92;;;20.60;50.20;;;;;;4483296;31;20152;-62
2022/05/28 10:18:37;;;;;;;8.63;1.80;;;20.60;50.00;;;;;;4481971;32;20117;-62
2022/05/28 10:21:17;;;;;;;12.82;1.90;;;20.60;49.80;;;;;;4482316;32;20141;-62
2022/05/28 10:23:50;;;;;;;15.63;2.72;;;20.60;49.90;;;;;;4482533;32;20563;-62
2022/05/28 10:26:36;;;;;;;8.52;1.42;;;20.60;50.00;;;;;;4482441;31;20271;-62
2022/05/28 10:29:17;;;;;;;5.70;1.85;;;20.70;50.00;;;;;;4482396;32;20129;-62
2022/05/28 10:31:46;;;;;;;9.77;2.20;;;20.70;49.80;;;;;;4482013;31;20672;-62
2022/05/28 10:34:37;;;;;;;7.15;1.70;;;20.60;49.30;;;;;;4481814;32;20133;-62
2022/05/28 10:37:13;;;;;;;13.27;2.22;;;20.60;49.30;;;;;;4480691;32;20129;-62
2022/05/28 10:39:41;;;;;;;9.48;1.50;;;20.60;49.20;;;;;;4480909;32;20586;-62
2022/05/28 10:42:12;;;;;;;7.18;2.08;;;20.70;49.40;;;;;;4483138;31;20131;-62
2022/05/28 10:44:40;;;;;;;6.18;1.70;;;20.60;49.80;;;;;;4481843;31;20143;-62
2022/05/28 10:47:18;;;;;;;12.50;2.03;;;20.60;50.00;;;;;;4482445;32;20141;-63
2022/05/28 10:50:18;;;;;;;10.50;1.98;;;20.60;50.20;;;;;;4482337;32;20128;-62
2022/05/28 10:52:57;;;;;;;8.45;1.42;;;20.60;49.80;;;;;;4481762;32;20346;-62
2022/05/28 10:55:28;;;;;;;8.10;1.58;;;20.60;49.80;;;;;;4482604;32;20132;-62
2022/05/28 10:58:08;;;;;;;8.98;1.77;;;20.60;49.70;;;;;;4482157;32;20152;-62
2022/05/28 11:00:46;;;;;;;9.48;2.25;;;20.60;49.80;;;;;;4482127;32;20140;-62
2022/05/28 11:03:34;;;;;;;9.07;1.83;;;20.60;50.10;;;;;;4481528;32;20141;-62
2022/05/28 11:06:44;;;;;;;9.43;2.03;;;20.50;50.40;;;;;;4481498;32;20148;-62
2022/05/28 11:09:29;;;;;;;6.53;2.08;;;20.50;50.60;;;;;;4482098;32;20132;-62
2022/05/28 11:12:25;;;;;;;7.57;1.80;;;20.50;50.50;;;;;;4482860;31;20260;-62
2022/05/28 11:15:28;;;;;;;7.25;1.95;;;20.50;50.40;;;;;;4481718;32;20148;-62
2022/05/28 11:18:11;;;;;;;12.90;2.22;;;20.50;50.40;;;;;;4481577;32;20137;-62
2022/05/28 11:21:09;;;;;;;9.18;2.15;;;20.50;50.50;;;;;;4482833;31;20283;-62
2022/05/28 11:23:50;;;;;;;8.80;1.98;;;20.50;50.60;;;;;;4468958;32;20147;-62
2022/05/28 11:26:18;;;;;;;11.02;1.80;;;20.50;50.50;;;;;;4468970;32;20122;-62
2022/05/28 11:29:22;;;;;;;8.80;1.73;;;20.50;50.70;;;;;;4466237;32;20173;-62
2022/05/28 11:31:57;;;;;;;12.57;2.40;;;20.50;50.90;;;;;;4465129;32;20176;-61
2022/05/28 11:34:54;;;;;;;9.27;1.70;;;20.50;50.80;;;;;;4465805;32;20144;-62
2022/05/28 11:37:33;;;;;;;8.48;1.70;;;20.60;51.00;;;;;;4467426;31;20141;-62
2022/05/28 11:40:21;;;;;;;12.93;2.15;;;20.50;50.90;;;;;;4464871;32;20259;-62
2022/05/28 11:43:18;;;;;;;8.73;1.85;;;20.50;50.80;;;;;;4464530;32;20121;-62
2022/05/28 11:45:55;;;;;;;8.93;2.08;;;20.50;50.50;;;;;;4465504;32;20183;-62
2022/05/28 11:51:55;;;;;;;6.68;1.73;;;20.50;50.50;;;;;;4461993;31;20140;-61
2022/05/28 11:54:36;;;;;;;9.77;2.13;;;20.50;50.70;;;;;;4465750;32;20141;-62
2022/05/28 11:57:06;;;;;;;7.90;1.90;;;20.50;50.70;;;;;;4466725;31;20181;-62
2022/05/28 11:59:35;;;;;;;8.10;1.98;;;20.50;50.80;;;;;;4465968;32;20133;-62
2022/05/28 12:02:08;;;;;;;10.48;2.28;;;20.40;50.90;;;;;;4464932;32;20194;-62
2022/05/28 12:04:42;;;;;;;7.30;1.67;;;20.40;50.80;;;;;;4465255;32;20133;-62
2022/05/28 12:07:22;;;;;;;7.13;1.83;;;20.40;50.90;;;;;;4465851;32;20258;-62
2022/05/28 12:09:48;;;;;;;7.82;1.60;;;20.40;50.90;;;;;;4464897;32;20149;-61
2022/05/28 12:12:34;;;;;;;10.38;2.13;;;20.40;51.90;;;;;;4463601;32;20271;-62
2022/05/28 12:15:16;;;;;;;8.45;1.83;;;20.40;50.90;;;;;;4465250;32;20143;-62
2022/05/28 12:18:11;;;;;;;6.75;1.92;;;20.40;50.70;;;;;;4465302;32;20188;-62
2022/05/28 12:20:59;;;;;;;9.93;1.85;;;20.40;50.30;;;;;;4465766;32;20129;-62
2022/05/28 12:23:29;;;;;;;8.77;1.88;;;20.40;50.60;;;;;;4476825;31;20222;-62
2022/05/28 12:25:55;;;;;;;9.60;2.00;;;20.40;50.70;;;;;;4464926;32;20481;-62
2022/05/28 12:28:27;;;;;;;6.45;1.75;;;20.40;50.70;;;;;;4465197;32;20599;-62
2022/05/28 12:30:54;;;;;;;6.97;1.63;;;20.40;50.80;;;;;;4464687;32;20189;-62
2022/05/28 12:33:25;;;;;;;9.93;2.13;;;20.40;50.90;;;;;;4465724;32;20151;-62
2022/05/28 12:36:02;;;;;;;8.50;2.38;;;20.40;51.00;;;;;;4464488;32;20129;-63
2022/05/28 12:38:49;;;;;;;9.07;2.17;;;20.40;51.10;;;;;;4477181;31;20133;-62
2022/05/28 12:41:18;;;;;;;6.43;1.58;;;20.40;51.10;;;;;;4465317;32;20557;-62
2022/05/28 12:43:53;;;;;;;6.53;1.70;;;20.40;51.20;;;;;;4464046;32;20117;-62
2022/05/28 12:46:35;;;;;;;10.90;2.05;;;20.50;51.30;;;;;;4465633;32;20288;-62
2022/05/28 12:49:07;;;;;;;8.60;1.83;;;20.50;51.20;;;;;;4476629;32;20139;-62
2022/05/28 12:52:11;;;;;;;8.98;2.00;;;20.50;51.20;;;;;;4476753;32;20198;-62
2022/05/28 12:54:40;;;;;;;7.50;1.73;;;20.50;51.20;;;;;;4440446;32;20117;-62
2022/05/28 12:57:10;;;;;;;8.40;2.00;;;20.50;51.10;;;;;;4464163;32;20529;-62
2022/05/28 12:59:40;;;;;;;7.93;2.15;;;20.50;51.10;;;;;;4464589;32;20141;-62
2022/05/28 13:02:26;;;;;;;7.80;1.77;;;20.60;52.00;;;;;;4464540;32;20139;-62
2022/05/28 13:05:06;;;;;;;6.57;1.83;;;20.60;51.00;;;;;;4469655;32;20555;-62
2022/05/28 13:07:43;;;;;;;6.07;1.52;;;20.60;51.00;;;;;;4481005;32;20137;-62
2022/05/28 13:10:17;;;;;;;9.80;1.73;;;20.60;51.00;;;;;;4479927;32;20601;-62
2022/05/28 13:13:08;;;;;;;6.75;1.42;;;20.60;50.80;;;;;;4480753;32;20187;-62
2022/05/28 13:16:01;;;;;;;8.63;2.00;;;20.60;50.70;;;;;;4480596;32;20160;-62
2022/05/28 13:18:45;;;;;;;8.57;1.75;;;20.60;50.50;;;;;;4463649;32;20129;-62
2022/05/28 13:21:14;;;;;;;;;;;20.60;50.60;;;;;;4465449;32;20564;-62